createdAt,value
2022-12-07T00:01:35.200Z,2.90
2022-12-07T00:04:09.332Z,2.80
2022-12-07T00:06:39.058Z,2.80
2022-12-07T00:09:08.278Z,2.60
2022-12-07T00:11:36.114Z,2.70
2022-12-07T00:14:08.362Z,2.80
2022-12-07T00:16:48.289Z,3.10
2022-12-07T00:19:17.691Z,2.90
2022-12-07T00:21:45.711Z,2.80
2022-12-07T00:24:14.478Z,2.90
2022-12-07T00:26:43.749Z,2.50
2022-12-07T00:29:17.089Z,2.80
2022-12-07T00:31:45.045Z,2.97
2022-12-07T00:34:15.484Z,2.70
2022-12-07T00:36:44.969Z,3.33
2022-12-07T00:39:13.022Z,2.70
2022-12-07T00:41:40.947Z,2.90
2022-12-07T00:44:08.863Z,2.53
2022-12-07T00:46:36.747Z,2.30
2022-12-07T00:49:05.018Z,2.80
2022-12-07T00:51:32.909Z,2.53
2022-12-07T00:54:02.206Z,2.60
2022-12-07T00:56:31.617Z,2.80
2022-12-07T00:59:01.534Z,2.40
2022-12-07T01:01:31.291Z,2.23
2022-12-07T01:03:59.938Z,2.57
2022-12-07T01:06:28.033Z,2.57
2022-12-07T01:08:56.174Z,2.90
2022-12-07T01:11:26.759Z,2.30
2022-12-07T01:13:56.476Z,2.50
2022-12-07T01:16:26.599Z,2.63
2022-12-07T01:18:56.247Z,2.57
2022-12-07T01:21:25.526Z,2.33
2022-12-07T01:23:53.913Z,2.23
2022-12-07T01:26:23.847Z,2.43
2022-12-07T01:28:56.267Z,2.50
2022-12-07T01:31:26.188Z,2.60
2022-12-07T01:33:56.868Z,2.37
2022-12-07T01:36:26.892Z,2.33
2022-12-07T01:38:58.051Z,2.70
2022-12-07T01:41:28.125Z,2.63
2022-12-07T01:44:20.453Z,2.53
2022-12-07T01:46:49.473Z,2.30
2022-12-07T01:49:24.220Z,2.40
2022-12-07T01:51:58.589Z,2.20
2022-12-07T01:54:27.908Z,2.63
2022-12-07T01:56:58.438Z,2.17
2022-12-07T01:59:28.465Z,2.60
2022-12-07T02:01:57.929Z,2.33
2022-12-07T02:04:26.379Z,2.20
2022-12-07T02:06:55.813Z,2.23
2022-12-07T02:09:23.728Z,2.10
2022-12-07T02:11:52.618Z,2.50
2022-12-07T02:14:20.537Z,2.30
2022-12-07T02:17:02.003Z,2.27
2022-12-07T02:19:59.947Z,2.13
2022-12-07T02:22:50.153Z,2.00
2022-12-07T02:25:27.779Z,2.17
2022-12-07T02:28:02.534Z,2.30
2022-12-07T02:30:35.769Z,2.23
2022-12-07T02:33:08.036Z,2.20
2022-12-07T02:35:41.731Z,2.00
2022-12-07T02:38:16.389Z,2.37
2022-12-07T02:40:50.163Z,2.13
2022-12-07T02:43:22.514Z,2.00
2022-12-07T02:45:54.872Z,2.37
2022-12-07T02:48:23.959Z,2.13
2022-12-07T02:50:52.410Z,2.20
2022-12-07T02:53:38.082Z,1.97
2022-12-07T02:56:15.871Z,2.30
2022-12-07T02:58:57.166Z,2.10
2022-12-07T03:01:32.918Z,1.70
2022-12-07T03:04:17.710Z,2.20
2022-12-07T03:06:52.603Z,2.10
2022-12-07T03:09:27.178Z,1.90
2022-12-07T03:12:02.823Z,1.90
2022-12-07T03:14:35.693Z,2.00
2022-12-07T03:17:12.086Z,1.90
2022-12-07T03:19:42.947Z,2.03
2022-12-07T03:22:13.403Z,1.97
2022-12-07T03:24:45.742Z,1.60
2022-12-07T03:27:18.733Z,1.73
2022-12-07T03:29:53.260Z,2.10
2022-12-07T03:32:29.278Z,2.10
2022-12-07T03:35:03.853Z,1.83
2022-12-07T03:37:36.357Z,2.00
2022-12-07T03:40:13.977Z,1.87
2022-12-07T03:42:42.434Z,1.93
2022-12-07T03:45:12.292Z,2.03
2022-12-07T03:47:48.926Z,1.87
2022-12-07T03:50:23.996Z,1.73
2022-12-07T03:52:58.099Z,2.30
2022-12-07T03:55:30.047Z,1.60
2022-12-07T03:58:01.815Z,1.77
2022-12-07T04:00:30.186Z,2.20
2022-12-07T04:02:59.918Z,1.93
2022-12-07T04:05:28.117Z,1.70
2022-12-07T04:07:56.093Z,2.10
2022-12-07T04:10:24.186Z,1.80
2022-12-07T04:12:52.014Z,1.90
2022-12-07T04:15:20.033Z,1.80
2022-12-07T04:17:47.911Z,2.03
2022-12-07T04:20:17.391Z,1.93
2022-12-07T04:22:45.255Z,2.03
2022-12-07T04:25:13.177Z,1.80
2022-12-07T04:27:41.071Z,1.80
2022-12-07T04:30:09.966Z,1.80
2022-12-07T04:32:37.819Z,1.70
2022-12-07T04:35:06.929Z,1.80
2022-12-07T04:37:36.246Z,1.77
2022-12-07T04:40:04.684Z,2.10
2022-12-07T04:42:32.735Z,1.90
2022-12-07T04:45:00.557Z,1.50
2022-12-07T04:47:28.442Z,1.70
2022-12-07T04:49:56.273Z,1.80
2022-12-07T04:52:24.118Z,1.70
2022-12-07T04:54:53.327Z,1.73
2022-12-07T04:57:21.118Z,1.73
2022-12-07T04:59:48.948Z,1.60
2022-12-07T05:02:16.816Z,1.80
2022-12-07T05:04:44.824Z,1.60
2022-12-07T05:07:12.625Z,2.07
2022-12-07T05:09:40.442Z,1.70
2022-12-07T05:12:09.777Z,1.53
2022-12-07T05:14:37.675Z,1.60
2022-12-07T05:17:06.045Z,1.60
2022-12-07T05:19:34.055Z,1.57
2022-12-07T05:22:01.868Z,1.50
2022-12-07T05:24:29.674Z,2.10
2022-12-07T05:26:57.530Z,1.77
2022-12-07T05:29:26.685Z,1.53
2022-12-07T05:31:54.546Z,1.50
2022-12-07T05:34:22.837Z,1.50
2022-12-07T05:36:51.335Z,1.40
2022-12-07T05:39:19.160Z,1.73
2022-12-07T05:42:04.459Z,1.67
2022-12-07T05:44:33.673Z,1.43
2022-12-07T05:47:01.497Z,1.43
2022-12-07T05:49:29.340Z,1.30
2022-12-07T05:51:57.158Z,1.70
2022-12-07T05:54:25.059Z,1.60
2022-12-07T05:56:53.068Z,1.30
2022-12-07T05:59:25.993Z,1.53
2022-12-07T06:01:57.555Z,1.40
2022-12-07T06:04:26.704Z,1.30
2022-12-07T06:06:54.679Z,1.37
2022-12-07T06:09:24.174Z,1.20
2022-12-07T06:12:10.003Z,1.47
2022-12-07T06:14:38.181Z,1.30
2022-12-07T06:17:07.871Z,1.57
2022-12-07T06:19:36.125Z,1.40
2022-12-07T06:22:05.483Z,1.37
2022-12-07T06:24:33.773Z,1.30
2022-12-07T06:27:01.879Z,1.30
2022-12-07T06:29:29.698Z,1.20
2022-12-07T06:31:57.612Z,1.23
2022-12-07T06:34:27.500Z,1.50
2022-12-07T06:36:56.088Z,1.30
2022-12-07T06:39:26.033Z,1.03
2022-12-07T06:41:54.787Z,1.20
2022-12-07T06:44:23.715Z,1.57
2022-12-07T06:46:51.861Z,1.33
2022-12-07T06:49:19.827Z,1.43
2022-12-07T06:51:49.049Z,1.20
2022-12-07T06:54:18.102Z,1.30
2022-12-07T06:56:45.892Z,1.30
2022-12-07T06:59:13.687Z,1.30
2022-12-07T07:01:41.560Z,1.30
2022-12-07T07:04:09.477Z,1.10
2022-12-07T07:06:37.274Z,1.40
2022-12-07T07:09:06.511Z,1.40
2022-12-07T07:11:34.450Z,1.10
2022-12-07T07:14:03.365Z,1.30
2022-12-07T07:16:32.157Z,1.10
2022-12-07T07:19:00.278Z,1.73
2022-12-07T07:21:28.133Z,1.33
2022-12-07T07:23:55.950Z,1.57
2022-12-07T07:26:25.168Z,1.27
2022-12-07T07:28:53.051Z,1.43
2022-12-07T07:31:20.955Z,1.70
2022-12-07T07:33:49.564Z,2.00
2022-12-07T07:36:17.425Z,1.90
2022-12-07T07:38:45.221Z,1.80
2022-12-07T07:41:13.036Z,1.70
2022-12-07T07:43:42.247Z,1.67
2022-12-07T07:46:10.172Z,1.90
2022-12-07T07:48:38.034Z,1.43
2022-12-07T07:51:08.183Z,1.53
2022-12-07T07:53:36.097Z,1.50
2022-12-07T07:56:04.270Z,1.30
2022-12-07T07:58:32.132Z,2.17
2022-12-07T08:01:06.522Z,1.40
2022-12-07T08:03:34.529Z,2.30
2022-12-07T08:06:03.663Z,2.30
2022-12-07T08:08:31.532Z,3.60
2022-12-07T08:11:01.564Z,2.80
2022-12-07T08:13:31.463Z,3.13
2022-12-07T08:16:05.014Z,3.20
2022-12-07T08:18:32.897Z,3.43
2022-12-07T08:21:02.434Z,3.37
2022-12-07T08:23:37.562Z,3.23
2022-12-07T08:26:09.518Z,3.10
2022-12-07T08:28:37.548Z,2.47
2022-12-07T08:31:09.396Z,2.67
2022-12-07T08:33:37.478Z,2.37
2022-12-07T08:36:07.026Z,2.33
2022-12-07T08:38:36.607Z,2.20
2022-12-07T08:41:04.633Z,2.03
2022-12-07T08:43:32.530Z,2.00
2022-12-07T08:46:11.984Z,2.50
2022-12-07T08:48:46.363Z,2.17
2022-12-07T08:51:14.395Z,1.80
2022-12-07T08:53:43.046Z,1.53
2022-12-07T08:56:11.581Z,1.83
2022-12-07T08:58:40.877Z,1.70
2022-12-07T09:01:10.501Z,1.73
2022-12-07T09:03:38.515Z,1.60
2022-12-07T09:06:06.985Z,1.77
2022-12-07T09:08:39.267Z,2.00
2022-12-07T09:11:07.111Z,2.10
2022-12-07T09:13:34.918Z,1.83
2022-12-07T09:16:02.854Z,1.80
2022-12-07T09:18:32.349Z,1.53
2022-12-07T09:21:00.192Z,2.17
2022-12-07T09:23:28.018Z,2.20
2022-12-07T09:25:55.837Z,1.40
2022-12-07T09:28:23.650Z,1.60
2022-12-07T09:33:42.543Z,1.50
2022-12-07T09:36:11.093Z,1.57
2022-12-07T09:38:38.893Z,1.80
2022-12-07T09:41:08.455Z,2.13
2022-12-07T09:43:38.426Z,2.33
2022-12-07T09:46:06.587Z,1.47
2022-12-07T09:48:37.475Z,1.50
2022-12-07T09:51:22.719Z,1.70
2022-12-07T09:53:53.535Z,1.50
2022-12-07T09:56:23.058Z,1.63
2022-12-07T09:58:53.052Z,2.03
2022-12-07T10:01:23.272Z,2.23
2022-12-07T10:03:53.793Z,1.43
2022-12-07T10:06:23.183Z,1.50
2022-12-07T10:08:50.995Z,1.90
2022-12-07T10:11:18.832Z,1.73
2022-12-07T10:13:49.745Z,1.90
2022-12-07T10:16:38.975Z,1.60
2022-12-07T10:19:22.000Z,1.67
2022-12-07T10:22:07.031Z,1.70
2022-12-07T10:24:34.871Z,1.67
2022-12-07T10:27:02.875Z,1.40
2022-12-07T10:29:33.383Z,1.90
2022-12-07T10:32:04.307Z,1.80
2022-12-07T10:34:40.997Z,0.93
2022-12-07T10:37:17.595Z,1.40
2022-12-07T10:39:48.194Z,1.40
2022-12-07T10:42:21.492Z,1.60
2022-12-07T10:44:50.281Z,1.40
2022-12-07T10:47:36.848Z,1.50
2022-12-07T10:50:24.744Z,2.10
2022-12-07T10:53:14.672Z,1.10
2022-12-07T10:56:07.785Z,1.50
2022-12-07T10:58:54.405Z,1.57
2022-12-07T11:01:28.135Z,1.30
2022-12-07T11:04:13.797Z,1.30
2022-12-07T11:06:51.334Z,1.87
2022-12-07T11:10:07.461Z,1.77
2022-12-07T11:12:44.190Z,1.37
2022-12-07T11:15:19.865Z,1.27
2022-12-07T11:17:57.240Z,1.27
2022-12-07T11:20:38.707Z,1.70
2022-12-07T11:23:21.076Z,1.87
2022-12-07T11:25:57.396Z,1.63
2022-12-07T11:28:37.609Z,1.20
2022-12-07T11:31:14.660Z,1.73
2022-12-07T11:33:48.050Z,1.20
2022-12-07T11:36:35.462Z,1.20
2022-12-07T11:39:06.368Z,2.13
2022-12-07T11:41:38.678Z,1.47
2022-12-07T11:44:09.948Z,1.50
2022-12-07T11:46:51.839Z,1.70
2022-12-07T11:49:25.805Z,2.00
2022-12-07T11:51:59.514Z,2.13
2022-12-07T11:54:31.581Z,2.27
2022-12-07T11:57:09.855Z,1.93
2022-12-07T11:59:42.974Z,1.87
2022-12-07T12:02:16.192Z,2.03
2022-12-07T12:04:54.857Z,2.13
2022-12-07T12:10:23.187Z,2.10
2022-12-07T12:16:10.821Z,2.00
2022-12-07T12:18:52.654Z,2.17
2022-12-07T12:21:24.484Z,2.00
2022-12-07T12:23:58.172Z,1.80
2022-12-07T12:26:29.202Z,1.90
2022-12-07T12:29:00.775Z,1.50
2022-12-07T12:31:37.279Z,2.03
2022-12-07T12:34:26.330Z,1.50
2022-12-07T12:36:57.302Z,1.53
2022-12-07T12:39:26.207Z,1.70
2022-12-07T12:42:10.041Z,1.30
2022-12-07T12:45:04.231Z,1.73
2022-12-07T12:47:54.774Z,1.93
2022-12-07T12:50:25.368Z,2.07
2022-12-07T12:53:25.534Z,1.50
2022-12-07T12:56:34.736Z,1.70
2022-12-07T12:59:25.173Z,2.10
2022-12-07T13:01:57.302Z,1.40
2022-12-07T13:05:01.542Z,1.53
2022-12-07T13:08:06.389Z,1.50
2022-12-07T13:10:43.040Z,1.70
2022-12-07T13:13:34.651Z,1.50
2022-12-07T13:16:50.345Z,1.90
2022-12-07T13:20:03.726Z,1.57
2022-12-07T13:22:45.598Z,1.50
2022-12-07T13:25:21.391Z,2.00
2022-12-07T13:27:53.903Z,1.07
2022-12-07T13:30:23.696Z,1.43
2022-12-07T13:32:55.136Z,1.63
2022-12-07T13:35:39.217Z,1.20
2022-12-07T13:38:25.182Z,1.73
2022-12-07T13:41:13.442Z,1.33
2022-12-07T13:43:51.124Z,1.60
2022-12-07T13:46:22.602Z,1.53
2022-12-07T13:48:52.172Z,1.40
2022-12-07T13:51:23.119Z,2.00
2022-12-07T13:53:54.927Z,1.63
2022-12-07T13:56:28.014Z,1.40
2022-12-07T13:58:56.380Z,1.53
2022-12-07T14:01:24.436Z,1.40
2022-12-07T14:03:52.439Z,1.37
2022-12-07T14:06:29.745Z,1.47
2022-12-07T14:09:24.312Z,1.53
2022-12-07T14:11:55.294Z,1.67
2022-12-07T14:14:24.938Z,1.30
2022-12-07T14:17:14.605Z,1.50
2022-12-07T14:19:50.040Z,1.53
2022-12-07T14:22:33.188Z,0.97
2022-12-07T14:25:16.253Z,1.30
2022-12-07T14:27:51.453Z,1.30
2022-12-07T14:30:20.186Z,1.37
2022-12-07T14:32:51.880Z,1.20
2022-12-07T14:35:20.526Z,1.60
2022-12-07T14:37:50.302Z,1.47
2022-12-07T14:40:21.996Z,1.00
2022-12-07T14:43:02.776Z,1.20
2022-12-07T14:45:30.948Z,1.30
2022-12-07T14:53:42.486Z,1.60
2022-12-07T14:56:11.669Z,1.97
2022-12-07T14:58:39.500Z,1.70
2022-12-07T15:01:07.352Z,1.70
2022-12-07T15:03:38.245Z,2.00
